createdAt,value
2019-04-14T00:36:45.961Z,12.63
2019-04-14T00:39:27.391Z,11.90
2019-04-14T00:42:12.673Z,11.37
2019-04-14T00:44:49.610Z,12.03
2019-04-14T00:47:20.063Z,12.97
2019-04-14T00:49:50.880Z,13.93
2019-04-14T00:52:19.578Z,13.20
2019-04-14T00:54:52.151Z,13.83
2019-04-14T00:57:22.277Z,13.10
2019-04-14T00:59:50.949Z,13.27
2019-04-14T01:02:19.447Z,13.67
2019-04-14T01:04:49.016Z,13.37
2019-04-14T01:07:17.761Z,12.57
2019-04-14T01:10:10.390Z,13.50
2019-04-14T01:12:56.027Z,14.20
2019-04-14T01:15:44.834Z,14.27
2019-04-14T01:18:12.551Z,14.03
2019-04-14T01:21:04.507Z,15.03
2019-04-14T01:23:50.094Z,14.30
2019-04-14T01:26:20.277Z,15.03
2019-04-14T01:28:48.925Z,13.80
2019-04-14T01:31:18.372Z,14.17
2019-04-14T01:33:47.039Z,14.80
2019-04-14T01:36:17.023Z,14.93
2019-04-14T01:38:47.126Z,15.87
2019-04-14T01:41:17.139Z,14.37
2019-04-14T01:43:45.600Z,13.47
2019-04-14T01:46:20.976Z,12.77
2019-04-14T01:48:45.826Z,13.53
2019-04-14T01:51:27.328Z,13.50
2019-04-14T01:54:14.926Z,11.97
2019-04-14T01:57:08.796Z,14.07
2019-04-14T01:59:46.005Z,13.73
2019-04-14T02:02:20.575Z,13.97
2019-04-14T02:04:49.213Z,11.77
2019-04-14T02:07:18.812Z,13.27
2019-04-14T02:09:47.473Z,13.63
2019-04-14T02:12:16.995Z,12.73
2019-04-14T02:14:47.403Z,13.23
2019-04-14T02:17:15.961Z,12.97
2019-04-14T02:19:46.129Z,12.43
2019-04-14T02:22:16.562Z,12.70
2019-04-14T02:24:46.708Z,12.53
2019-04-14T02:27:16.672Z,11.83
2019-04-14T02:29:47.336Z,12.27
2019-04-14T02:32:42.590Z,11.83
2019-04-14T02:35:21.183Z,12.50
2019-04-14T02:37:43.314Z,12.53
2019-04-14T02:40:21.703Z,13.13
2019-04-14T02:42:46.309Z,12.93
2019-04-14T02:45:35.476Z,13.03
2019-04-14T02:50:17.741Z,11.63
2019-04-14T02:55:19.074Z,12.63
2019-04-14T03:00:23.927Z,12.33
2019-04-14T03:05:19.579Z,13.33
2019-04-14T03:07:51.704Z,11.07
2019-04-14T03:18:18.691Z,13.60
2019-04-14T03:21:10.459Z,12.60
2019-04-14T03:24:07.115Z,13.40
2019-04-14T03:27:06.322Z,12.87
2019-04-14T03:29:49.839Z,12.30
2019-04-14T03:32:53.157Z,12.60
2019-04-14T03:35:19.876Z,12.83
2019-04-14T03:37:39.248Z,12.53
2019-04-14T03:39:52.158Z,12.70
2019-04-14T03:42:36.023Z,12.97
2019-04-14T03:44:48.667Z,12.77
2019-04-14T03:47:20.065Z,13.13
2019-04-14T03:52:22.128Z,12.33
2019-04-14T03:54:44.057Z,12.97
2019-04-14T03:56:57.686Z,12.97
2019-04-14T03:59:28.691Z,12.87
2019-04-14T04:02:00.980Z,13.20
2019-04-14T04:04:51.242Z,12.73
2019-04-14T04:07:23.603Z,12.63
2019-04-14T04:09:54.094Z,13.40
2019-04-14T04:12:22.791Z,13.43
2019-04-14T04:14:51.334Z,12.37
2019-04-14T04:17:36.179Z,12.57
2019-04-14T04:20:19.720Z,12.83
2019-04-14T04:22:56.541Z,14.17
2019-04-14T04:25:36.358Z,13.30
2019-04-14T04:28:17.293Z,13.50
2019-04-14T04:30:53.915Z,12.83
2019-04-14T04:33:26.762Z,12.33
2019-04-14T04:35:59.176Z,13.33
2019-04-14T04:38:31.279Z,12.90
2019-04-14T04:41:02.289Z,12.67
2019-04-14T04:43:56.108Z,13.70
2019-04-14T04:46:24.559Z,14.07
2019-04-14T04:49:03.371Z,14.70
2019-04-14T04:51:23.175Z,14.93
2019-04-14T04:53:52.714Z,13.17
2019-04-14T04:56:21.207Z,13.60
2019-04-14T04:58:56.704Z,14.37
2019-04-14T05:01:25.317Z,14.63
2019-04-14T05:03:53.799Z,14.07
2019-04-14T05:06:43.772Z,12.97
2019-04-14T05:09:19.270Z,14.27
2019-04-14T05:56:47.638Z,17.97
2019-04-14T05:59:26.370Z,16.23
2019-04-14T06:01:54.958Z,17.30
2019-04-14T06:04:24.330Z,19.03
2019-04-14T06:07:10.368Z,15.70
2019-04-14T06:13:11.796Z,16.63
2019-04-14T06:15:53.075Z,17.47
2019-04-14T06:18:25.779Z,18.40
2019-04-14T06:20:54.233Z,17.10
2019-04-14T06:23:22.740Z,18.30
2019-04-14T06:25:51.505Z,18.13
2019-04-14T06:28:19.954Z,18.40
2019-04-14T06:31:09.096Z,17.03
2019-04-14T06:33:44.502Z,17.60
2019-04-14T06:36:39.030Z,18.73
2019-04-14T06:39:17.958Z,19.23
2019-04-14T06:41:46.538Z,21.53
2019-04-14T06:44:16.659Z,19.30
2019-04-14T06:46:57.557Z,19.70
2019-04-14T06:49:26.015Z,20.40
2019-04-14T06:51:54.493Z,21.37
2019-04-14T06:54:22.963Z,16.53
2019-04-14T06:56:52.365Z,23.20
2019-04-14T06:59:20.871Z,19.90
2019-04-14T07:01:49.347Z,21.20
2019-04-14T07:04:17.808Z,22.07
2019-04-14T07:06:47.635Z,20.03
2019-04-14T07:09:16.827Z,20.33
2019-04-14T07:11:47.325Z,19.63
2019-04-14T07:14:17.216Z,19.87
2019-04-14T07:16:47.466Z,22.83
2019-04-14T07:19:20.761Z,21.33
2019-04-14T07:21:52.536Z,21.43
2019-04-14T07:24:32.722Z,23.23
2019-04-14T07:27:08.978Z,21.53
2019-04-14T07:29:50.978Z,22.53
2019-04-14T07:32:22.235Z,22.87
2019-04-14T07:34:52.921Z,22.30
2019-04-14T07:37:38.519Z,23.13
2019-04-14T07:40:30.833Z,23.17
2019-04-14T07:43:01.201Z,19.90
2019-04-14T07:45:50.760Z,22.03
2019-04-14T07:48:21.576Z,23.20
2019-04-14T07:51:10.496Z,22.33
2019-04-14T07:53:50.399Z,20.93
2019-04-14T07:56:23.049Z,22.50
2019-04-14T07:59:12.249Z,20.83
2019-04-14T08:01:53.945Z,19.90
2019-04-14T08:04:24.360Z,22.00
2019-04-14T08:06:54.357Z,24.43
2019-04-14T08:09:23.107Z,23.47
2019-04-14T08:11:52.155Z,24.87
2019-04-14T08:14:26.886Z,25.03
2019-04-14T08:16:55.397Z,22.80
2019-04-14T08:19:23.882Z,24.50
2019-04-14T08:21:55.418Z,23.27
2019-04-14T08:24:31.301Z,23.50
2019-04-14T08:27:03.162Z,24.63
2019-04-14T08:29:36.312Z,25.00
2019-04-14T08:32:30.715Z,26.50
2019-04-14T08:34:59.564Z,25.60
2019-04-14T08:37:28.113Z,24.67
2019-04-14T08:39:56.554Z,26.43
2019-04-14T08:42:26.640Z,27.00
2019-04-14T08:44:56.750Z,26.20
2019-04-14T08:47:43.921Z,23.73
2019-04-14T08:50:38.920Z,24.03
2019-04-14T08:53:12.086Z,23.53
2019-04-14T08:55:49.619Z,23.67
2019-04-14T08:58:39.043Z,27.53
2019-04-14T09:01:20.016Z,27.93
2019-04-14T09:03:53.168Z,27.97
2019-04-14T09:06:25.951Z,29.47
2019-04-14T09:09:07.448Z,24.90
2019-04-14T09:11:42.465Z,22.43
2019-04-14T09:14:20.492Z,26.83
2019-04-14T09:16:48.998Z,25.30
2019-04-14T09:19:19.782Z,28.83
2019-04-14T09:21:50.755Z,27.87
2019-04-14T09:24:19.205Z,27.10
2019-04-14T09:26:49.682Z,25.73
2019-04-14T09:29:20.180Z,29.17
2019-04-14T09:31:52.682Z,23.93
2019-04-14T09:34:22.047Z,23.83
2019-04-14T09:36:51.866Z,26.67
2019-04-14T09:39:20.439Z,25.37
2019-04-14T09:41:48.955Z,27.87
2019-04-14T09:44:17.478Z,23.13
2019-04-14T09:46:47.087Z,24.57
2019-04-14T09:49:17.143Z,27.97
2019-04-14T09:51:45.890Z,27.33
2019-04-14T09:54:17.277Z,27.10
2019-04-14T09:56:46.926Z,27.63
2019-04-14T09:59:26.826Z,27.20
2019-04-14T10:01:55.636Z,26.90
2019-04-14T10:04:24.983Z,26.97
2019-04-14T10:06:53.426Z,24.83
2019-04-14T10:09:21.918Z,26.47
2019-04-14T10:11:54.665Z,27.97
2019-04-14T10:14:23.338Z,26.43
2019-04-14T10:16:51.842Z,21.50
2019-04-14T10:19:30.952Z,26.40
2019-04-14T10:22:05.495Z,27.60
2019-04-14T10:24:42.375Z,26.60
2019-04-14T10:27:31.699Z,24.90
2019-04-14T10:30:00.624Z,25.10
2019-04-14T10:32:29.053Z,27.27
2019-04-14T10:35:06.216Z,23.77
2019-04-14T10:37:43.679Z,24.53
2019-04-14T10:40:18.677Z,27.07
2019-04-14T10:45:45.684Z,27.47
2019-04-14T10:48:18.833Z,23.13
2019-04-14T10:50:51.409Z,21.47
2019-04-14T10:53:20.299Z,24.50
2019-04-14T10:55:51.848Z,22.07
2019-04-14T10:58:21.151Z,23.37
2019-04-14T11:00:59.741Z,24.67
2019-04-14T11:03:28.342Z,21.17
2019-04-14T11:06:28.236Z,23.33
2019-04-14T11:08:56.785Z,22.87
2019-04-14T11:11:25.390Z,22.60
2019-04-14T11:16:53.527Z,19.13
2019-04-14T11:19:23.995Z,21.57
2019-04-14T11:21:58.354Z,15.93
2019-04-14T11:24:26.847Z,22.57
2019-04-14T11:26:55.284Z,23.30
2019-04-14T11:29:23.743Z,20.60
2019-04-14T11:31:53.872Z,21.33
2019-04-14T11:34:42.428Z,17.27
2019-04-14T11:37:36.161Z,18.73
2019-04-14T11:40:11.450Z,21.63
2019-04-14T11:42:52.319Z,22.40
2019-04-14T11:45:18.545Z,21.27
2019-04-14T11:48:19.057Z,20.07
2019-04-14T11:50:49.302Z,21.03
2019-04-14T11:53:19.129Z,13.53
2019-04-14T11:55:48.339Z,20.77
2019-04-14T11:58:18.420Z,20.50
2019-04-14T12:01:13.325Z,20.20
2019-04-14T12:03:49.770Z,19.03
2019-04-14T12:06:51.138Z,18.50
2019-04-14T12:09:40.258Z,20.63
2019-04-14T12:12:30.515Z,12.63
2019-04-14T12:17:48.495Z,17.03
2019-04-14T12:20:22.190Z,19.57
2019-04-14T12:22:51.965Z,19.00
2019-04-14T12:25:33.353Z,18.03
2019-04-14T12:28:07.045Z,16.27
2019-04-14T12:30:38.332Z,19.13
2019-04-14T12:33:11.827Z,18.57
2019-04-14T12:35:42.707Z,16.80
2019-04-14T12:38:12.240Z,17.60
2019-04-14T12:40:44.356Z,17.93
2019-04-14T12:43:17.962Z,14.53
2019-04-14T12:46:06.586Z,18.77
2019-04-14T12:48:39.684Z,18.27
2019-04-14T12:51:13.151Z,19.77
2019-04-14T12:53:43.741Z,18.57
2019-04-14T12:56:17.319Z,17.50
2019-04-14T12:58:54.705Z,17.50
2019-04-14T13:01:24.881Z,19.20
2019-04-14T13:03:53.309Z,16.53
2019-04-14T13:06:21.768Z,17.80
2019-04-14T13:08:50.363Z,16.47
2019-04-14T13:11:18.841Z,17.57
2019-04-14T13:13:48.692Z,15.23
2019-04-14T13:16:20.087Z,16.43
2019-04-14T13:18:48.714Z,15.50
2019-04-14T13:21:18.420Z,14.40
2019-04-14T13:23:49.660Z,16.27
2019-04-14T13:26:19.912Z,14.87
2019-04-14T13:28:50.103Z,15.20
2019-04-14T13:31:21.899Z,16.00
2019-04-14T13:33:50.965Z,15.00
2019-04-14T13:36:19.549Z,15.17
2019-04-14T13:38:48.627Z,14.73
2019-04-14T13:41:18.251Z,15.03
2019-04-14T13:43:48.533Z,11.77
2019-04-14T13:46:18.345Z,14.17
2019-04-14T13:48:48.432Z,13.37
2019-04-14T13:51:18.429Z,15.57
2019-04-14T13:53:46.869Z,13.20
2019-04-14T13:56:20.104Z,15.07
2019-04-14T13:58:52.144Z,13.57
2019-04-14T14:01:20.857Z,14.13
2019-04-14T14:03:50.254Z,14.50
2019-04-14T14:06:20.391Z,14.00
2019-04-14T14:08:50.295Z,12.23
2019-04-14T14:11:40.658Z,14.67
2019-04-14T14:14:23.297Z,12.80
2019-04-14T14:17:11.387Z,14.17
2019-04-14T14:20:03.902Z,13.70
2019-04-14T14:22:39.089Z,14.47
2019-04-14T14:25:13.538Z,15.10
2019-04-14T14:27:49.036Z,12.73
2019-04-14T14:30:20.037Z,14.73
2019-04-14T14:32:49.831Z,13.30
2019-04-14T14:35:36.351Z,13.20
2019-04-14T14:38:13.473Z,14.30
2019-04-14T14:40:52.196Z,14.63
2019-04-14T14:43:20.733Z,14.17
2019-04-14T14:45:54.309Z,14.40
2019-04-14T14:48:27.507Z,12.90
2019-04-14T14:51:02.003Z,13.70
2019-04-14T14:53:35.583Z,13.40
2019-04-14T14:56:10.102Z,14.23
2019-04-14T14:58:45.200Z,9.80
2019-04-14T15:01:15.322Z,12.50
2019-04-14T15:03:44.860Z,13.37
2019-04-14T15:06:14.896Z,12.77
2019-04-14T15:08:52.483Z,12.40
2019-04-14T15:11:21.141Z,10.37
2019-04-14T15:13:52.234Z,10.03
2019-04-14T15:19:30.107Z,8.83
2019-04-14T15:22:08.247Z,12.40
2019-04-14T15:24:44.796Z,12.10
2019-04-14T15:27:17.904Z,11.10
2019-04-14T15:29:50.243Z,11.90
2019-04-14T15:32:20.253Z,11.13
2019-04-14T15:34:49.665Z,12.63
2019-04-14T15:37:18.866Z,12.20
2019-04-14T15:40:08.153Z,11.40
2019-04-14T15:42:43.349Z,11.33
2019-04-14T15:45:17.865Z,11.73
2019-04-14T15:47:59.034Z,11.50
2019-04-14T15:50:28.573Z,12.57
2019-04-14T15:52:57.064Z,10.73
2019-04-14T15:55:28.281Z,11.63
2019-04-14T15:58:11.998Z,10.70
2019-04-14T16:00:44.933Z,11.53
2019-04-14T16:03:23.403Z,8.07
2019-04-14T16:05:53.967Z,10.30
2019-04-14T16:08:25.388Z,10.40
2019-04-14T16:10:55.516Z,10.77
2019-04-14T16:13:28.834Z,10.87
2019-04-14T16:16:08.196Z,10.83
2019-04-14T16:22:00.573Z,10.67
2019-04-14T16:24:36.069Z,10.73
2019-04-14T16:27:12.360Z,8.60
2019-04-14T16:30:05.667Z,9.73
2019-04-14T16:32:42.712Z,10.57
2019-04-14T16:35:18.068Z,11.17
2019-04-14T16:37:54.761Z,10.90
2019-04-14T16:40:23.890Z,9.47
2019-04-14T16:42:53.375Z,10.33
2019-04-14T16:45:21.919Z,9.93
2019-04-14T16:47:51.323Z,10.07
2019-04-14T16:50:22.851Z,10.37
2019-04-14T16:52:53.109Z,9.20
2019-04-14T16:55:23.719Z,10.40
2019-04-14T16:58:13.278Z,9.60
2019-04-14T17:06:24.474Z,10.27
2019-04-14T17:08:53.214Z,9.67
2019-04-14T17:11:21.711Z,9.33
2019-04-14T17:20:23.419Z,9.97
2019-04-14T17:23:24.718Z,9.23
2019-04-14T17:25:57.283Z,7.63
2019-04-14T17:28:27.374Z,9.80
2019-04-14T17:31:05.462Z,9.13
2019-04-14T17:33:48.722Z,9.90
2019-04-14T17:36:20.923Z,10.10
2019-04-14T17:38:52.989Z,9.73
2019-04-14T17:41:34.458Z,9.00
2019-04-14T17:44:11.529Z,9.33
2019-04-14T17:47:00.630Z,9.50
2019-04-14T17:50:02.512Z,9.23
2019-04-14T17:52:44.893Z,8.37
2019-04-14T17:55:21.352Z,9.03
2019-04-14T17:57:54.297Z,9.50
2019-04-14T18:00:24.443Z,10.00
2019-04-14T18:02:57.234Z,9.03
2019-04-14T18:05:55.332Z,9.10
2019-04-14T18:08:28.244Z,9.63
2019-04-14T18:11:08.860Z,9.23
2019-04-14T18:13:57.226Z,9.30
2019-04-14T18:16:30.133Z,8.60
2019-04-14T18:19:15.119Z,8.87
2019-04-14T18:21:48.960Z,9.53
2019-04-14T18:24:20.233Z,9.57
2019-04-14T18:26:49.514Z,10.03
2019-04-14T18:29:21.185Z,10.20
2019-04-14T18:32:09.299Z,9.37
2019-04-14T18:34:47.510Z,9.73
2019-04-14T18:37:25.484Z,9.80
2019-04-14T18:43:12.556Z,9.10
2019-04-14T18:49:06.248Z,8.63
2019-04-14T18:51:50.273Z,8.33
2019-04-14T18:54:22.483Z,8.80
2019-04-14T18:56:55.630Z,8.20
2019-04-14T18:59:25.747Z,8.03
2019-04-14T19:01:57.474Z,6.33
2019-04-14T19:04:25.894Z,7.73
2019-04-14T19:06:54.479Z,8.00
2019-04-14T19:09:23.070Z,7.17
2019-04-14T19:11:55.908Z,7.90
2019-04-14T19:14:28.845Z,7.80
2019-04-14T19:16:59.094Z,7.77
2019-04-14T19:19:27.531Z,7.73
2019-04-14T19:21:55.993Z,7.20
2019-04-14T19:24:24.408Z,7.40
2019-04-14T19:26:52.860Z,7.03
2019-04-14T19:29:21.454Z,6.73
2019-04-14T19:31:50.242Z,7.67
2019-04-14T19:34:22.168Z,7.97
2019-04-14T19:36:50.761Z,7.50
2019-04-14T19:39:21.165Z,7.37
2019-04-14T19:41:49.934Z,7.10
2019-04-14T19:44:53.737Z,7.00
2019-04-14T19:47:22.690Z,7.73
2019-04-14T19:49:51.535Z,6.83
2019-04-14T19:52:21.789Z,7.57
2019-04-14T19:54:50.705Z,6.67
2019-04-14T19:57:20.456Z,7.47
2019-04-14T19:59:49.955Z,7.47
2019-04-14T20:02:20.765Z,7.77
2019-04-14T20:04:49.197Z,7.03
2019-04-14T20:07:17.917Z,7.63
2019-04-14T20:09:46.347Z,7.70
2019-04-14T20:16:13.758Z,7.83
2019-04-14T20:19:09.924Z,7.63
2019-04-14T20:21:45.433Z,7.93
2019-04-14T20:24:24.736Z,7.57
2019-04-14T20:27:03.908Z,7.40
2019-04-14T20:29:36.952Z,8.30
2019-04-14T20:32:19.976Z,8.03
2019-04-14T20:34:48.403Z,8.00
2019-04-14T20:37:17.817Z,7.50
2019-04-14T20:39:47.263Z,7.87
2019-04-14T20:42:18.774Z,7.77
2019-04-14T20:44:47.206Z,7.67
2019-04-14T20:47:18.203Z,7.97
2019-04-14T20:49:46.700Z,7.53
2019-04-14T20:52:15.147Z,7.43
2019-04-14T20:54:44.135Z,7.60
2019-04-14T20:57:12.565Z,7.47
2019-04-14T20:59:40.979Z,7.63
2019-04-14T21:05:28.842Z,8.97
2019-04-14T21:08:10.800Z,7.77
2019-04-14T21:10:43.349Z,7.60
2019-04-14T21:13:16.272Z,7.63
2019-04-14T21:15:55.085Z,7.93
2019-04-14T21:18:25.156Z,8.07
2019-04-14T21:21:01.013Z,6.53
2019-04-14T21:23:34.044Z,7.53
2019-04-14T21:26:20.372Z,7.13
2019-04-14T21:28:50.492Z,7.30
2019-04-14T21:31:23.382Z,7.93
2019-04-14T21:37:05.429Z,7.93
2019-04-14T21:39:51.773Z,7.87
2019-04-14T21:42:20.730Z,8.03
2019-04-14T21:44:49.219Z,7.43
2019-04-14T21:47:17.699Z,7.10
2019-04-14T21:49:46.153Z,7.00
2019-04-14T21:52:16.301Z,6.93
2019-04-14T21:54:44.964Z,7.00
2019-04-14T21:57:31.360Z,7.10
2019-04-14T22:00:17.661Z,6.60
2019-04-14T22:03:04.301Z,7.00
2019-04-14T22:05:43.323Z,6.90
2019-04-14T22:08:13.726Z,6.33
2019-04-14T22:10:46.621Z,6.93
2019-04-14T22:13:15.075Z,6.93
2019-04-14T22:15:43.506Z,7.07
2019-04-14T22:18:12.018Z,6.80
2019-04-14T22:20:40.428Z,7.57
2019-04-14T22:23:10.482Z,6.63
2019-04-14T22:25:38.936Z,5.33
2019-04-14T22:28:07.310Z,7.53
2019-04-14T22:30:35.726Z,6.77
2019-04-14T22:33:04.911Z,6.93
2019-04-14T22:35:33.406Z,6.60
2019-04-14T22:38:01.873Z,6.77
2019-04-14T22:40:49.736Z,7.10
2019-04-14T22:43:18.290Z,6.30
2019-04-14T22:45:46.721Z,7.03
2019-04-14T22:48:15.135Z,7.57
2019-04-14T22:50:43.593Z,7.47
2019-04-14T22:53:12.147Z,6.90
2019-04-14T22:55:40.567Z,6.83
2019-04-14T22:58:08.966Z,6.57
2019-04-14T23:00:41.852Z,6.70
2019-04-14T23:03:20.928Z,7.33
2019-04-14T23:08:48.070Z,6.70
2019-04-14T23:11:41.101Z,6.70
2019-04-14T23:14:29.764Z,6.77
2019-04-14T23:17:09.791Z,6.80
2019-04-14T23:19:47.919Z,7.17
2019-04-14T23:22:25.421Z,6.10
2019-04-14T23:24:53.875Z,7.20
2019-04-14T23:27:22.358Z,6.30
2019-04-14T23:29:51.416Z,7.30
2019-04-14T23:32:22.017Z,6.63
2019-04-14T23:34:51.621Z,6.83
2019-04-14T23:37:21.938Z,6.83
2019-04-14T23:39:50.374Z,6.70
2019-04-14T23:42:18.791Z,8.10
2019-04-14T23:44:47.274Z,8.10
2019-04-14T23:47:16.616Z,8.77
2019-04-14T23:49:48.337Z,8.67
2019-04-14T23:52:19.987Z,9.27
2019-04-14T23:54:50.945Z,8.43
2019-04-14T23:57:20.362Z,9.47
